Time;durP1;ratioP1;P1;durP2;ratioP2;P2;SDS_P1;SDS_P2;PMS_P1;PMS_P2;Temp;Humidity;BMP_temperature;BMP_pressure;BME280_temperature;BME280_humidity;BME280_pressure;Samples;Min_cycle;Max_cycle;Signal;HPM_P1;HPM_P2
2023/01/01 00:00:01;;;;;;;1.25;1.25;;;7.20;99.90;;;;;;6097785;23;20384;-74
2023/01/01 00:02:28;;;;;;;1.13;1.13;;;7.20;99.90;;;;;;6096524;23;20384;-74
2023/01/01 00:05:03;;;;;;;1.30;1.20;;;7.20;99.90;;;;;;6121930;23;20379;-73
2023/01/01 00:07:30;;;;;;;1.27;1.27;;;7.20;99.90;;;;;;6122205;23;20368;-73
2023/01/01 00:12:42;;;;;;;1.15;1.15;;;7.20;99.90;;;;;;6122163;23;20423;-73
2023/01/01 00:15:09;;;;;;;1.10;1.10;;;7.30;99.90;;;;;;6121693;23;20426;-73
2023/01/01 00:17:36;;;;;;;1.10;1.10;;;7.30;99.90;;;;;;6120811;23;20915;-73
2023/01/01 00:20:03;;;;;;;1.00;1.00;;;7.40;99.90;;;;;;6097604;23;20855;-73
2023/01/01 00:22:30;;;;;;;1.05;1.05;;;7.40;99.90;;;;;;6096774;23;20749;-73
2023/01/01 00:25:17;;;;;;;1.15;1.15;;;7.40;99.90;;;;;;6122871;23;20474;-73
2023/01/01 00:27:51;;;;;;;1.10;1.10;;;7.30;99.90;;;;;;6098151;23;20368;-73
2023/01/01 00:30:23;;;;;;;1.02;1.02;;;7.40;99.90;;;;;;6097746;23;20375;-73
2023/01/01 00:32:50;;;;;;;1.40;1.30;;;7.30;99.90;;;;;;6122140;23;20376;-74
2023/01/01 00:35:23;;;;;;;1.30;1.20;;;7.40;99.90;;;;;;6123014;23;20391;-74
2023/01/01 00:37:52;;;;;;;1.30;1.20;;;7.40;99.90;;;;;;6096350;23;20371;-74
2023/01/01 00:40:19;;;;;;;1.20;1.20;;;7.50;99.90;;;;;;6097377;23;20436;-73
2023/01/01 00:42:46;;;;;;;1.00;1.00;;;7.50;99.90;;;;;;6120847;23;20380;-73
2023/01/01 00:45:13;;;;;;;1.00;1.00;;;7.50;99.90;;;;;;6097237;23;20431;-73
2023/01/01 00:47:49;;;;;;;1.10;1.10;;;7.50;99.90;;;;;;6122152;23;20380;-73
2023/01/01 00:50:16;;;;;;;1.20;1.20;;;7.50;99.90;;;;;;6097123;23;20443;-73
2023/01/01 00:52:43;;;;;;;1.23;1.20;;;7.60;99.90;;;;;;6096407;23;20745;-74
2023/01/01 00:55:11;;;;;;;1.00;1.00;;;7.60;99.90;;;;;;6121602;23;20376;-73
2023/01/01 00:57:38;;;;;;;1.20;1.20;;;7.60;99.90;;;;;;6095181;23;20434;-73
2023/01/01 01:00:07;;;;;;;1.23;1.13;;;7.70;99.90;;;;;;6095930;23;20919;-74
2023/01/01 01:02:34;;;;;;;0.98;0.98;;;7.70;99.90;;;;;;6121215;23;20372;-73
2023/01/01 01:05:02;;;;;;;1.15;1.15;;;7.70;99.90;;;;;;6122167;23;20400;-74
2023/01/01 01:07:36;;;;;;;1.20;1.20;;;7.80;99.80;;;;;;6122466;23;20438;-74
2023/01/01 01:10:03;;;;;;;1.00;1.00;;;7.80;99.80;;;;;;6120077;23;20368;-73
2023/01/01 01:12:32;;;;;;;1.70;1.60;;;7.80;99.90;;;;;;6096756;23;20712;-74
2023/01/01 01:14:58;;;;;;;1.73;1.63;;;7.70;99.90;;;;;;6119647;23;20396;-73
2023/01/01 01:17:26;;;;;;;1.30;1.30;;;7.70;99.90;;;;;;6096847;23;20395;-73
2023/01/01 01:19:52;;;;;;;1.60;1.50;;;7.60;99.90;;;;;;6095390;23;20435;-73
2023/01/01 01:22:19;;;;;;;1.10;1.10;;;7.50;99.90;;;;;;6096782;23;20382;-74
2023/01/01 01:24:54;;;;;;;1.20;1.20;;;7.50;99.90;;;;;;6096930;23;20384;-73
2023/01/01 01:27:21;;;;;;;1.20;1.20;;;7.50;99.90;;;;;;6113421;23;20442;-73
2023/01/01 01:29:48;;;;;;;0.98;0.98;;;7.50;99.90;;;;;;6095467;23;20431;-74
2023/01/01 01:32:18;;;;;;;1.40;1.30;;;7.50;99.90;;;;;;6098224;23;20403;-74
2023/01/01 01:34:48;;;;;;;2.03;1.92;;;7.50;99.90;;;;;;6098601;23;20379;-73
2023/01/01 01:37:15;;;;;;;2.00;1.90;;;7.50;99.90;;;;;;6098111;23;20384;-74
2023/01/01 01:39:42;;;;;;;2.40;2.30;;;7.50;99.90;;;;;;6098198;23;20379;-74
2023/01/01 01:42:16;;;;;;;2.55;2.45;;;7.40;99.90;;;;;;6097441;23;20371;-73
2023/01/01 01:44:53;;;;;;;2.60;2.50;;;7.30;99.90;;;;;;6098971;23;20384;-73
2023/01/01 01:47:20;;;;;;;2.73;2.63;;;7.20;99.90;;;;;;6098372;23;20820;-73
2023/01/01 01:49:51;;;;;;;3.20;3.00;;;7.10;99.90;;;;;;6099510;23;20380;-73
2023/01/01 01:52:18;;;;;;;3.50;3.30;;;7.00;99.90;;;;;;6121833;23;20426;-73
2023/01/01 01:54:45;;;;;;;3.22;3.03;;;6.80;99.90;;;;;;6098976;23;20454;-73
2023/01/01 01:57:13;;;;;;;3.22;3.13;;;6.80;99.90;;;;;;6123702;23;20761;-74
2023/01/01 01:59:46;;;;;;;2.92;2.83;;;6.70;99.90;;;;;;6098959;23;20750;-74
2023/01/01 02:02:41;;;;;;;3.22;3.05;;;6.70;99.90;;;;;;6123640;23;20447;-74
2023/01/01 07:33:01;;;;;;;4.90;4.63;;;5.80;99.90;;;;;;6056674;23;20378;-77
2023/01/01 07:35:28;;;;;;;4.93;4.70;;;5.90;99.90;;;;;;6123038;23;20399;-78
2023/01/01 07:37:54;;;;;;;5.07;4.82;;;5.90;99.90;;;;;;6123616;23;20368;-78
2023/01/01 07:40:21;;;;;;;5.30;5.00;;;5.90;99.90;;;;;;6097138;23;20434;-79
2023/01/01 07:42:48;;;;;;;5.40;5.10;;;5.90;99.90;;;;;;6097898;23;20460;-78
2023/01/01 07:45:15;;;;;;;5.20;4.90;;;5.90;99.90;;;;;;6122843;23;20414;-78
2023/01/01 07:47:42;;;;;;;5.32;5.03;;;5.90;99.90;;;;;;6123276;23;20455;-78
2023/01/01 07:50:16;;;;;;;5.05;4.75;;;6.00;99.90;;;;;;6096239;23;20839;-78
2023/01/01 07:52:43;;;;;;;4.55;4.30;;;6.00;99.90;;;;;;6123711;23;20371;-78
2023/01/01 07:55:14;;;;;;;4.90;4.63;;;6.10;99.90;;;;;;6121882;23;20383;-77
2023/01/01 07:57:42;;;;;;;4.85;4.63;;;6.10;99.90;;;;;;6098037;23;20425;-78
2023/01/01 08:00:12;;;;;;;5.50;5.20;;;6.10;99.90;;;;;;6121838;23;20384;-78
2023/01/01 08:02:39;;;;;;;5.20;4.90;;;6.20;99.90;;;;;;6097779;23;20380;-78
2023/01/01 08:05:06;;;;;;;5.45;5.15;;;6.10;99.90;;;;;;6122598;23;20703;-78
2023/01/01 08:07:34;;;;;;;5.43;5.13;;;6.10;99.90;;;;;;6097719;23;20360;-77
2023/01/01 08:10:01;;;;;;;4.95;4.75;;;6.10;99.90;;;;;;6097554;23;20380;-79
2023/01/01 08:12:28;;;;;;;5.13;4.82;;;6.20;99.90;;;;;;6120683;23;20434;-78
2023/01/01 08:14:55;;;;;;;4.75;4.53;;;6.20;99.90;;;;;;6097762;23;20423;-78
2023/01/01 08:17:22;;;;;;;4.47;4.28;;;6.20;99.90;;;;;;6122447;23;20769;-78
2023/01/01 08:19:50;;;;;;;5.13;4.83;;;6.30;99.90;;;;;;6097844;23;20447;-78
2023/01/01 08:22:17;;;;;;;5.07;4.78;;;6.30;99.90;;;;;;6097069;23;20402;-78
2023/01/01 08:24:44;;;;;;;4.78;4.55;;;6.30;99.90;;;;;;6121947;23;20442;-78
2023/01/01 08:27:15;;;;;;;5.22;4.93;;;6.30;99.90;;;;;;6122355;23;20376;-78
2023/01/01 08:29:43;;;;;;;6.00;5.70;;;6.30;99.90;;;;;;6122923;23;20399;-78
2023/01/01 08:32:11;;;;;;;5.77;5.43;;;6.30;99.90;;;;;;6122139;23;20410;-78
2023/01/01 08:34:38;;;;;;;5.93;5.53;;;6.40;99.90;;;;;;6121369;23;20439;-78
2023/01/01 08:37:10;;;;;;;5.80;5.40;;;6.40;99.90;;;;;;6122847;23;20852;-79
2023/01/01 08:39:37;;;;;;;5.90;5.53;;;6.50;99.90;;;;;;6096605;23;20376;-78
2023/01/01 08:42:04;;;;;;;5.95;5.55;;;6.50;99.90;;;;;;6123364;23;20704;-78
2023/01/01 08:44:37;;;;;;;5.50;5.20;;;6.60;99.90;;;;;;6121851;23;20370;-77
2023/01/01 08:47:04;;;;;;;5.32;5.03;;;6.70;99.90;;;;;;6121471;23;20435;-79
2023/01/01 08:49:31;;;;;;;5.20;4.90;;;6.70;99.90;;;;;;6096637;23;20403;-78
2023/01/01 08:51:58;;;;;;;5.63;5.32;;;6.80;99.90;;;;;;6097402;23;20399;-78
2023/01/01 08:54:25;;;;;;;5.63;5.32;;;6.90;99.90;;;;;;6097083;23;20758;-78
2023/01/01 08:56:52;;;;;;;5.40;5.10;;;7.00;99.90;;;;;;6122754;23;20383;-78
2023/01/01 08:59:19;;;;;;;5.07;4.80;;;7.00;99.90;;;;;;6122367;23;20376;-78
2023/01/01 09:01:45;;;;;;;5.47;5.18;;;7.10;99.90;;;;;;6122469;23;20395;-78
2023/01/01 09:04:12;;;;;;;5.20;4.90;;;7.10;99.90;;;;;;6121527;23;20431;-78
2023/01/01 09:06:41;;;;;;;4.50;4.30;;;7.20;99.90;;;;;;6119477;23;20375;-78
2023/01/01 09:09:08;;;;;;;4.93;4.65;;;7.30;99.90;;;;;;6096505;23;20757;-78
2023/01/01 09:11:35;;;;;;;4.60;4.40;;;7.40;99.90;;;;;;6121568;23;20702;-78
2023/01/01 09:14:02;;;;;;;5.60;5.20;;;7.40;99.90;;;;;;6096070;23;20439;-78
2023/01/01 09:16:29;;;;;;;5.28;4.97;;;7.50;99.90;;;;;;6121089;23;20391;-78
2023/01/01 09:18:56;;;;;;;5.10;4.80;;;7.50;99.90;;;;;;6096529;23;20375;-78
2023/01/01 09:21:23;;;;;;;4.97;4.68;;;7.60;99.90;;;;;;6119374;23;20383;-78
2023/01/01 09:23:50;;;;;;;5.00;4.63;;;7.60;99.90;;;;;;6122467;23;20368;-79
2023/01/01 09:26:17;;;;;;;4.90;4.60;;;7.70;99.90;;;;;;6096819;23;20384;-78
2023/01/01 09:28:44;;;;;;;6.38;5.97;;;7.70;99.90;;;;;;6119562;23;20431;-78
2023/01/01 09:31:11;;;;;;;4.75;4.55;;;7.70;99.90;;;;;;6096134;23;20733;-78
2023/01/01 09:33:38;;;;;;;5.13;4.82;;;7.80;99.90;;;;;;6120705;23;20748;-79
2023/01/01 09:36:12;;;;;;;5.53;5.22;;;7.90;99.90;;;;;;6120378;23;20383;-78
2023/01/01 09:38:39;;;;;;;5.88;5.57;;;8.00;99.90;;;;;;6095486;23;20406;-78
2023/01/01 09:41:15;;;;;;;6.07;5.78;;;8.00;99.90;;;;;;6096418;23;20391;-78
2023/01/01 09:44:10;;;;;;;5.22;4.95;;;8.10;99.90;;;;;;6095765;23;20363;-78
2023/01/01 09:46:37;;;;;;;5.75;5.45;;;8.10;99.90;;;;;;6120706;23;20411;-79
2023/01/01 09:49:13;;;;;;;5.40;5.10;;;8.20;99.90;;;;;;6096383;23;20407;-79
2023/01/01 09:51:42;;;;;;;5.32;5.03;;;8.30;99.90;;;;;;6122416;23;20383;-79
2023/01/01 09:54:34;;;;;;;5.18;4.88;;;8.30;99.90;;;;;;6100283;23;20380;-78
2023/01/01 09:57:05;;;;;;;5.70;5.40;;;8.40;99.90;;;;;;6096795;23;20449;-78
2023/01/01 09:59:32;;;;;;;5.10;4.80;;;8.40;99.90;;;;;;6098049;23;20380;-78
2023/01/01 10:02:36;;;;;;;4.80;4.50;;;8.50;99.90;;;;;;6122536;23;20431;-78
2023/01/01 10:05:50;;;;;;;4.70;4.43;;;8.50;99.90;;;;;;6097059;23;20395;-79
2023/01/01 10:08:30;;;;;;;4.10;3.90;;;8.50;99.90;;;;;;6038243;23;20379;-79
2023/01/01 10:11:47;;;;;;;4.03;3.83;;;8.60;99.90;;;;;;6062730;23;20387;-78
2023/01/01 10:14:27;;;;;;;3.92;3.72;;;8.60;99.90;;;;;;6033408;23;20377;-78
2023/01/01 10:16:56;;;;;;;4.32;4.13;;;8.60;99.90;;;;;;6095997;23;20855;-79
2023/01/01 10:19:37;;;;;;;3.58;3.40;;;8.70;99.90;;;;;;6098759;23;20451;-78
2023/01/01 10:22:13;;;;;;;4.00;3.80;;;8.60;99.90;;;;;;6097445;23;20403;-79
2023/01/01 10:24:56;;;;;;;3.88;3.67;;;8.70;99.90;;;;;;6098671;23;20376;-79
2023/01/01 10:28:01;;;;;;;3.80;3.60;;;8.80;99.90;;;;;;6123563;23;20376;-78
2023/01/01 10:30:29;;;;;;;4.28;4.07;;;8.80;99.90;;;;;;6095904;23;20380;-78
2023/01/01 10:32:58;;;;;;;4.03;3.83;;;8.90;99.90;;;;;;6122790;23;20376;-78
2023/01/01 10:35:30;;;;;;;3.88;3.67;;;8.90;99.90;;;;;;6122012;23;20367;-78
2023/01/01 10:38:02;;;;;;;4.20;4.00;;;8.90;99.90;;;;;;6122173;23;20394;-78
2023/01/01 10:40:29;;;;;;;3.80;3.60;;;9.00;99.90;;;;;;6122141;23;20368;-78
2023/01/01 10:42:58;;;;;;;4.33;4.13;;;9.10;99.90;;;;;;6123962;23;20395;-78
2023/01/01 10:45:32;;;;;;;3.90;3.70;;;9.10;99.90;;;;;;6123070;23;20388;-78
2023/01/01 10:48:14;;;;;;;3.80;3.60;;;9.20;99.90;;;;;;6123847;23;20380;-79
2023/01/01 10:51:00;;;;;;;4.10;3.90;;;9.30;99.90;;;;;;6097572;23;20376;-77
2023/01/01 10:53:34;;;;;;;4.10;3.90;;;9.40;99.90;;;;;;6122813;23;20442;-78
2023/01/01 10:56:04;;;;;;;3.90;3.70;;;9.40;99.90;;;;;;6122122;23;20752;-78
2023/01/01 10:58:43;;;;;;;4.00;3.80;;;9.40;99.90;;;;;;6122214;23;20733;-78
2023/01/01 11:01:23;;;;;;;3.75;3.55;;;9.50;99.90;;;;;;6123664;23;20383;-79
2023/01/01 11:04:02;;;;;;;3.95;3.75;;;9.50;99.90;;;;;;6097787;23;20372;-79
2023/01/01 11:06:36;;;;;;;4.00;3.80;;;9.50;99.90;;;;;;6097040;23;20447;-78
2023/01/01 11:09:23;;;;;;;4.05;3.85;;;9.50;99.90;;;;;;6098524;23;20371;-77
2023/01/01 11:12:07;;;;;;;3.73;3.53;;;9.50;99.90;;;;;;6122707;23;20674;-78
2023/01/01 11:14:57;;;;;;;3.70;3.50;;;9.50;99.90;;;;;;6122777;23;20374;-77
2023/01/01 11:17:27;;;;;;;3.70;3.50;;;9.50;99.90;;;;;;6123683;23;20376;-78
2023/01/01 11:19:56;;;;;;;3.67;3.47;;;9.50;99.90;;;;;;6121977;23;20443;-78
2023/01/01 11:22:39;;;;;;;4.03;3.83;;;9.50;99.90;;;;;;6099141;23;20443;-78
2023/01/01 11:25:26;;;;;;;3.55;3.35;;;9.50;99.90;;;;;;6122682;23;20368;-77
2023/01/01 11:28:15;;;;;;;3.58;3.38;;;9.50;99.90;;;;;;6096850;23;20379;-76
2023/01/01 11:31:00;;;;;;;3.42;3.22;;;9.60;99.90;;;;;;6096842;23;20412;-77
2023/01/01 11:33:31;;;;;;;3.70;3.50;;;9.70;99.90;;;;;;6097515;23;20379;-78
2023/01/01 11:35:58;;;;;;;3.77;3.57;;;9.70;99.90;;;;;;6096683;23;20372;-76
2023/01/01 11:38:25;;;;;;;3.45;3.28;;;9.70;99.90;;;;;;6123488;23;20399;-77
2023/01/01 11:41:05;;;;;;;3.78;3.58;;;9.70;99.90;;;;;;6120981;23;20383;-77
2023/01/01 11:43:43;;;;;;;3.25;3.15;;;9.70;99.90;;;;;;6097933;23;20383;-76
2023/01/01 11:46:16;;;;;;;3.13;3.03;;;9.70;99.90;;;;;;6122191;23;20430;-77
2023/01/01 11:48:44;;;;;;;2.90;2.80;;;9.70;99.90;;;;;;6097774;23;20426;-79
2023/01/01 11:51:30;;;;;;;3.83;3.63;;;9.80;99.90;;;;;;6122703;23;20375;-76
2023/01/01 11:54:37;;;;;;;3.13;3.03;;;9.90;99.90;;;;;;6096554;23;20447;-76
2023/01/01 11:57:15;;;;;;;3.10;3.00;;;9.90;99.90;;;;;;6097113;23;20438;-76
2023/01/01 11:59:49;;;;;;;3.42;3.22;;;10.00;99.90;;;;;;6097455;23;20857;-76
2023/01/01 12:02:41;;;;;;;3.25;3.00;;;10.00;99.90;;;;;;6097203;23;20403;-77
2023/01/01 12:05:25;;;;;;;3.13;3.03;;;10.00;99.90;;;;;;6096080;23;20447;-79
2023/01/01 12:07:54;;;;;;;3.35;3.15;;;10.00;99.90;;;;;;6120396;23;20426;-76
2023/01/01 12:10:28;;;;;;;3.57;3.37;;;10.00;99.90;;;;;;6097199;23;20379;-76
2023/01/01 12:13:09;;;;;;;3.53;3.33;;;10.10;99.90;;;;;;6120426;23;20376;-76
2023/01/01 12:15:45;;;;;;;3.70;3.50;;;10.00;99.90;;;;;;6122555;23;20439;-76
2023/01/01 12:18:21;;;;;;;3.95;3.75;;;10.00;99.90;;;;;;6095909;23;20387;-78
2023/01/01 12:21:02;;;;;;;4.00;3.80;;;10.00;99.90;;;;;;6097485;23;20380;-77
2023/01/01 12:23:31;;;;;;;4.03;3.83;;;10.00;99.90;;;;;;6122414;23;20391;-77
2023/01/01 12:26:24;;;;;;;4.00;3.80;;;10.00;99.90;;;;;;6123176;23;20847;-77
2023/01/01 12:29:31;;;;;;;4.20;3.90;;;10.00;99.90;;;;;;6096698;23;20729;-77
2023/01/01 12:32:12;;;;;;;3.45;3.28;;;10.00;99.90;;;;;;6092543;23;20423;-77
2023/01/01 12:35:01;;;;;;;3.70;3.50;;;10.00;99.90;;;;;;6093696;23;20384;-78
2023/01/01 12:37:48;;;;;;;3.72;3.53;;;9.90;99.90;;;;;;6094937;23;20717;-78
2023/01/01 12:40:29;;;;;;;3.75;3.55;;;9.80;99.90;;;;;;6120506;23;20971;-78
2023/01/01 12:43:10;;;;;;;3.70;3.50;;;9.80;99.90;;;;;;6095329;23;20399;-77
2023/01/01 12:46:14;;;;;;;3.40;3.20;;;9.90;99.90;;;;;;6119054;23;20379;-76
2023/01/01 12:48:49;;;;;;;3.80;3.60;;;9.80;99.90;;;;;;6120057;23;20368;-76
2023/01/01 12:51:49;;;;;;;3.08;2.95;;;9.90;99.90;;;;;;6120246;23;20380;-78
2023/01/01 12:54:57;;;;;;;3.13;3.00;;;9.90;99.90;;;;;;6094641;23;20371;-77
2023/01/01 12:57:27;;;;;;;3.45;3.25;;;9.90;99.90;;;;;;6096002;23;20689;-77
2023/01/01 12:59:56;;;;;;;3.20;3.08;;;9.90;99.90;;;;;;6122651;23;20375;-77
2023/01/01 13:02:27;;;;;;;3.13;2.92;;;9.80;99.90;;;;;;6121777;23;20435;-78
2023/01/01 13:05:14;;;;;;;3.35;3.15;;;9.60;99.90;;;;;;6097072;23;20430;-77
2023/01/01 13:07:47;;;;;;;2.80;2.70;;;9.60;99.90;;;;;;6096213;23;20408;-77
2023/01/01 13:10:17;;;;;;;2.90;2.80;;;9.50;99.90;;;;;;6096951;23;20376;-76
2023/01/01 13:12:45;;;;;;;3.13;3.00;;;9.50;99.90;;;;;;6121836;23;20871;-77
2023/01/01 13:15:36;;;;;;;3.20;3.10;;;9.50;99.90;;;;;;6096999;23;20380;-77
2023/01/01 13:18:27;;;;;;;3.15;2.95;;;9.60;99.90;;;;;;6121788;23;20375;-77
2023/01/01 13:20:56;;;;;;;3.30;3.10;;;9.70;99.90;;;;;;6121927;23;20411;-77
2023/01/01 13:23:35;;;;;;;3.58;3.38;;;9.70;99.90;;;;;;6097226;23;20442;-78
2023/01/01 13:26:16;;;;;;;3.40;3.20;;;9.70;99.90;;;;;;6096029;23;20368;-77
2023/01/01 13:29:10;;;;;;;3.07;2.97;;;9.80;99.90;;;;;;6098220;23;20395;-77
2023/01/01 13:31:37;;;;;;;3.88;3.67;;;9.90;99.90;;;;;;6123887;23;20380;-77
2023/01/01 13:34:29;;;;;;;3.53;3.33;;;9.80;99.90;;;;;;6098132;23;20845;-77
2023/01/01 13:37:14;;;;;;;3.25;3.15;;;9.70;99.90;;;;;;6097761;23;20380;-77
2023/01/01 13:40:00;;;;;;;3.50;3.30;;;9.80;99.90;;;;;;6123348;23;20832;-77
2023/01/01 13:42:40;;;;;;;3.42;3.22;;;9.60;99.90;;;;;;6124442;23;20376;-77
2023/01/01 13:45:20;;;;;;;3.42;3.22;;;9.60;99.90;;;;;;6098083;23;20359;-77
2023/01/01 13:48:37;;;;;;;3.28;3.15;;;9.70;99.90;;;;;;6102490;23;20431;-77
2023/01/01 13:51:07;;;;;;;2.85;2.75;;;9.60;99.90;;;;;;6097632;23;20407;-78
2023/01/01 13:53:43;;;;;;;3.22;3.03;;;9.60;99.90;;;;;;6098551;23;20372;-78
2023/01/01 13:56:09;;;;;;;2.58;2.47;;;9.60;99.90;;;;;;6098133;23;20439;-77
2023/01/01 13:58:48;;;;;;;3.13;2.92;;;9.60;99.90;;;;;;6124226;23;20756;-77
2023/01/01 14:02:00;;;;;;;2.55;2.45;;;9.60;99.90;;;;;;6123723;23;20847;-77
2023/01/01 14:04:42;;;;;;;2.90;2.80;;;9.60;99.90;;;;;;6123365;23;20376;-77
2023/01/01 14:07:29;;;;;;;3.00;2.80;;;9.50;99.90;;;;;;6097624;23;20380;-77
2023/01/01 14:10:19;;;;;;;3.20;3.00;;;9.50;99.90;;;;;;6122871;23;20380;-77
2023/01/01 14:12:47;;;;;;;3.10;3.00;;;9.50;99.90;;;;;;6124462;23;20379;-77
2023/01/01 14:15:57;;;;;;;3.80;3.60;;;9.60;99.90;;;;;;6123344;23;20379;-78
2023/01/01 14:18:32;;;;;;;2.85;2.75;;;9.60;99.90;;;;;;6081349;23;20442;-78
2023/01/01 14:20:59;;;;;;;3.40;3.20;;;9.60;99.90;;;;;;6124240;23;20380;-77
2023/01/01 14:23:34;;;;;;;2.67;2.58;;;9.50;99.90;;;;;;6122897;23;20430;-77
2023/01/01 14:26:05;;;;;;;2.75;2.65;;;9.50;99.90;;;;;;6124153;23;20877;-77
2023/01/01 14:28:33;;;;;;;3.13;2.97;;;9.50;99.90;;;;;;6097261;23;20681;-77
2023/01/01 14:31:04;;;;;;;3.03;2.83;;;9.60;99.90;;;;;;6121400;23;20408;-78
2023/01/01 14:33:38;;;;;;;2.88;2.78;;;9.60;99.90;;;;;;6098813;23;20372;-76
2023/01/01 14:36:23;;;;;;;2.85;2.72;;;9.70;99.90;;;;;;6123634;23;20863;-78
2023/01/01 14:38:56;;;;;;;2.35;2.25;;;9.70;99.90;;;;;;6096321;23;20686;-77
2023/01/01 14:41:30;;;;;;;2.20;2.10;;;9.80;99.90;;;;;;6097269;23;20387;-77
2023/01/01 14:44:15;;;;;;;2.70;2.60;;;9.80;99.90;;;;;;6121776;23;20752;-77
2023/01/01 14:46:47;;;;;;;2.80;2.70;;;9.90;99.90;;;;;;6121505;23;20403;-77
2023/01/01 14:49:36;;;;;;;2.83;2.72;;;9.80;99.90;;;;;;6097678;23;20852;-77
2023/01/01 14:52:13;;;;;;;2.95;2.78;;;9.80;99.90;;;;;;6122829;23;20741;-77
2023/01/01 14:54:43;;;;;;;2.60;2.50;;;9.80;99.90;;;;;;6122789;23;20395;-77
2023/01/01 14:57:16;;;;;;;2.85;2.75;;;9.90;99.90;;;;;;6123679;23;20412;-76
2023/01/01 14:59:48;;;;;;;2.60;2.50;;;9.90;99.90;;;;;;6097412;23;20400;-76
2023/01/01 15:02:19;;;;;;;2.50;2.40;;;9.90;99.90;;;;;;6123476;23;20686;-77
2023/01/01 15:04:47;;;;;;;2.70;2.50;;;9.90;99.90;;;;;;6097556;23;20384;-78
2023/01/01 15:07:26;;;;;;;2.58;2.47;;;9.90;99.90;;;;;;6098014;23;20376;-77
2023/01/01 15:09:56;;;;;;;2.85;2.65;;;9.90;99.90;;;;;;6111038;23;20387;-77
2023/01/01 15:12:23;;;;;;;2.58;2.47;;;9.80;99.90;;;;;;6098219;23;20384;-77
2023/01/01 15:14:52;;;;;;;2.70;2.58;;;9.80;99.90;;;;;;6096790;23;20387;-78
2023/01/01 15:17:24;;;;;;;2.80;2.60;;;9.80;99.90;;;;;;6123346;23;20391;-77
2023/01/01 15:20:04;;;;;;;2.20;2.10;;;9.80;99.90;;;;;;6122767;23;20855;-77
2023/01/01 15:22:39;;;;;;;2.58;2.47;;;9.60;99.90;;;;;;6123379;23;20372;-77
2023/01/01 15:25:12;;;;;;;2.20;2.10;;;9.60;99.90;;;;;;6122291;23;20438;-78
2023/01/01 15:27:39;;;;;;;2.20;2.10;;;9.60;99.90;;;;;;6123431;23;20387;-77
2023/01/01 15:30:20;;;;;;;2.20;2.10;;;9.60;99.90;;;;;;6096927;23;20371;-77
2023/01/01 15:32:47;;;;;;;2.40;2.30;;;9.50;99.90;;;;;;6096328;23;20756;-77
2023/01/01 15:35:33;;;;;;;2.60;2.47;;;9.40;99.90;;;;;;6122953;23;20894;-77
2023/01/01 15:38:17;;;;;;;2.45;2.35;;;9.40;99.90;;;;;;6094783;23;20396;-77
2023/01/01 15:40:44;;;;;;;2.83;2.72;;;9.40;99.90;;;;;;6120055;23;20407;-77
2023/01/01 15:43:24;;;;;;;3.20;3.10;;;9.50;99.90;;;;;;6121920;23;20830;-77
2023/01/01 15:46:09;;;;;;;3.30;3.10;;;9.40;99.90;;;;;;6118726;23;20399;-77
2023/01/01 15:48:49;;;;;;;6.55;6.10;;;9.30;99.90;;;;;;6122037;23;20736;-77
2023/01/01 15:51:20;;;;;;;4.93;4.63;;;9.30;99.90;;;;;;6119639;23;20384;-77
2023/01/01 15:53:53;;;;;;;4.20;4.00;;;9.20;99.90;;;;;;6095657;23;20422;-77
2023/01/01 15:56:24;;;;;;;4.57;4.30;;;9.20;99.90;;;;;;6095390;23;20391;-77
2023/01/01 15:59:01;;;;;;;4.03;3.83;;;9.10;99.90;;;;;;6095986;23;20383;-77
2023/01/01 16:01:37;;;;;;;3.83;3.63;;;9.10;99.90;;;;;;6121059;23;20372;-78
2023/01/01 16:04:07;;;;;;;3.75;3.55;;;9.10;99.90;;;;;;6095059;23;20876;-77
2023/01/01 16:06:45;;;;;;;3.70;3.50;;;9.10;99.90;;;;;;6095058;23;20376;-77
2023/01/01 16:09:16;;;;;;;3.78;3.58;;;9.10;99.90;;;;;;6095286;23;20383;-77
2023/01/01 16:11:44;;;;;;;3.70;3.50;;;9.10;99.90;;;;;;6121065;23;20755;-77
2023/01/01 16:14:11;;;;;;;3.80;3.60;;;9.10;99.90;;;;;;6120162;23;20769;-76
2023/01/01 16:16:41;;;;;;;3.47;3.27;;;9.10;99.90;;;;;;6120504;23;20762;-77
2023/01/01 16:19:18;;;;;;;3.80;3.60;;;9.10;99.90;;;;;;6121061;23;20442;-76
2023/01/01 16:21:45;;;;;;;4.13;3.83;;;9.10;99.90;;;;;;6120467;23;21043;-77
2023/01/01 16:24:16;;;;;;;3.90;3.70;;;9.00;99.90;;;;;;6121578;23;20943;-76
2023/01/01 16:26:44;;;;;;;3.50;3.30;;;9.10;99.90;;;;;;6095109;23;20389;-76
2023/01/01 16:29:11;;;;;;;3.63;3.42;;;9.00;99.90;;;;;;6121450;23;20399;-76
2023/01/01 16:31:39;;;;;;;3.70;3.50;;;9.00;99.90;;;;;;6120541;23;20408;-77
2023/01/01 16:34:07;;;;;;;3.75;3.55;;;8.90;99.90;;;;;;6121882;23;20694;-77
2023/01/01 16:36:34;;;;;;;4.13;3.92;;;8.90;99.90;;;;;;6096049;23;20435;-76
2023/01/01 16:39:01;;;;;;;4.00;3.80;;;8.90;99.90;;;;;;6096184;23;20904;-77
2023/01/01 16:41:29;;;;;;;4.28;4.07;;;8.80;99.90;;;;;;6096126;23;20419;-76
2023/01/01 16:43:56;;;;;;;4.35;4.07;;;8.80;99.90;;;;;;6097350;23;20689;-76
2023/01/01 16:46:23;;;;;;;4.78;4.50;;;8.80;99.90;;;;;;6120454;23;20379;-77
2023/01/01 16:48:50;;;;;;;4.60;4.38;;;8.70;99.90;;;;;;6121228;23;20395;-77
2023/01/01 16:51:23;;;;;;;5.40;4.93;;;8.70;99.90;;;;;;6121628;23;20439;-77
2023/01/01 16:53:50;;;;;;;5.15;4.85;;;8.70;99.90;;;;;;6096743;23;20419;-77
2023/01/01 16:56:17;;;;;;;4.47;4.28;;;8.70;99.90;;;;;;6122624;23;20500;-76
2023/01/01 16:58:44;;;;;;;4.75;4.45;;;8.70;99.90;;;;;;6096435;23;20766;-76
2023/01/01 17:01:17;;;;;;;4.60;4.40;;;8.70;99.90;;;;;;6099958;23;20712;-76
2023/01/01 17:03:44;;;;;;;4.20;4.00;;;8.60;99.90;;;;;;6099617;23;20411;-77
2023/01/01 17:06:11;;;;;;;5.13;4.82;;;8.60;99.90;;;;;;6125766;23;20376;-76
2023/01/01 17:08:38;;;;;;;4.70;4.40;;;8.60;99.90;;;;;;6099597;23;20380;-76
2023/01/01 17:11:14;;;;;;;5.03;4.72;;;8.60;99.90;;;;;;6122643;23;20375;-76
2023/01/01 17:13:43;;;;;;;6.68;6.28;;;8.60;99.90;;;;;;6124092;23;20681;-77
2023/01/01 17:16:11;;;;;;;5.47;5.18;;;8.60;99.90;;;;;;6100451;23;20371;-77
2023/01/01 17:18:38;;;;;;;5.18;4.88;;;8.60;99.90;;;;;;6124194;23;20388;-77
2023/01/01 17:21:25;;;;;;;4.30;4.10;;;8.50;99.90;;;;;;6102669;23;20439;-76
2023/01/01 17:23:52;;;;;;;3.97;3.75;;;8.60;99.90;;;;;;6097287;23;20480;-76
2023/01/01 17:26:21;;;;;;;4.30;4.10;;;8.50;99.90;;;;;;6098663;23;20395;-76
2023/01/01 17:28:50;;;;;;;4.10;3.88;;;8.50;99.90;;;;;;6122850;23;20371;-76
2023/01/01 17:31:27;;;;;;;4.40;4.10;;;8.50;99.90;;;;;;6101005;23;20447;-77
2023/01/01 17:33:55;;;;;;;3.88;3.67;;;8.40;99.90;;;;;;6122602;23;20685;-75
2023/01/01 17:36:22;;;;;;;4.00;3.80;;;8.50;99.90;;;;;;6122967;23;20483;-76
2023/01/01 17:38:49;;;;;;;3.80;3.60;;;8.50;99.90;;;;;;6122651;23;20442;-76
2023/01/01 17:41:16;;;;;;;4.60;4.30;;;8.50;99.90;;;;;;6123864;23;20422;-76
2023/01/01 17:43:46;;;;;;;4.35;4.05;;;8.50;99.90;;;;;;6096468;23;20380;-77
2023/01/01 17:46:22;;;;;;;3.97;3.77;;;8.50;99.90;;;;;;6098907;23;20386;-77
2023/01/01 17:48:52;;;;;;;4.18;3.97;;;8.50;99.90;;;;;;6121507;23;20387;-77
2023/01/01 17:51:19;;;;;;;4.70;4.40;;;8.50;99.90;;;;;;6124256;23;20379;-77
2023/01/01 17:53:47;;;;;;;4.90;4.60;;;8.50;99.90;;;;;;6097946;23;20386;-76
2023/01/01 17:56:15;;;;;;;5.13;4.82;;;8.50;99.90;;;;;;6124313;23;20482;-77
2023/01/01 17:58:44;;;;;;;3.85;3.65;;;8.50;99.90;;;;;;6121994;23;20415;-77
2023/01/01 18:01:23;;;;;;;4.05;3.85;;;8.50;99.90;;;;;;6124066;23;20748;-78
2023/01/01 18:03:53;;;;;;;4.07;3.88;;;8.50;99.90;;;;;;6123214;23;20383;-77
2023/01/01 18:06:20;;;;;;;4.80;4.50;;;8.50;99.90;;;;;;6098315;23;20383;-77
2023/01/01 18:08:47;;;;;;;4.40;4.20;;;8.50;99.90;;;;;;6123339;23;20410;-77
2023/01/01 18:11:14;;;;;;;4.13;3.93;;;8.50;99.90;;;;;;6124239;23;20486;-76
2023/01/01 18:13:41;;;;;;;4.22;4.03;;;8.50;99.90;;;;;;6120214;23;20407;-76
2023/01/01 18:16:08;;;;;;;4.03;3.83;;;8.50;99.90;;;;;;6096909;23;20371;-77
2023/01/01 18:18:37;;;;;;;5.00;4.70;;;8.50;99.90;;;;;;6121850;23;20459;-78
2023/01/01 18:21:20;;;;;;;4.47;4.18;;;8.50;99.90;;;;;;6121475;23;20371;-77
2023/01/01 18:23:49;;;;;;;4.18;3.97;;;8.50;99.90;;;;;;6122078;23;20376;-78
2023/01/01 18:26:16;;;;;;;4.53;4.22;;;8.50;99.90;;;;;;6123241;23;20400;-78
2023/01/01 18:28:43;;;;;;;3.70;3.50;;;8.50;99.90;;;;;;6096569;23;20435;-77
2023/01/01 18:31:13;;;;;;;4.95;4.65;;;8.50;99.90;;;;;;6120326;23;20442;-77
2023/01/01 18:33:40;;;;;;;4.53;4.23;;;8.50;99.90;;;;;;6095857;23;20435;-76
2023/01/01 18:36:12;;;;;;;4.20;4.00;;;8.40;99.90;;;;;;6122910;23;20778;-78
2023/01/01 18:38:42;;;;;;;3.92;3.72;;;8.40;99.90;;;;;;6096291;23;20927;-76
2023/01/01 18:41:25;;;;;;;4.40;4.13;;;8.40;99.90;;;;;;6123014;23;20756;-77
2023/01/01 18:43:53;;;;;;;3.73;3.53;;;8.30;99.90;;;;;;6095276;23;20461;-77
2023/01/01 18:46:22;;;;;;;4.25;4.05;;;8.30;99.90;;;;;;6096746;23;20760;-78
2023/01/01 18:48:49;;;;;;;4.35;4.07;;;8.40;99.90;;;;;;6095244;23;20470;-77
2023/01/01 18:51:25;;;;;;;3.90;3.70;;;8.40;99.90;;;;;;6098598;23;20386;-76
2023/01/01 18:53:57;;;;;;;3.83;3.63;;;8.40;99.90;;;;;;6119720;23;20379;-77
2023/01/01 18:56:24;;;;;;;4.20;4.00;;;8.40;99.90;;;;;;6122717;23;20439;-77
2023/01/01 18:58:55;;;;;;;3.67;3.47;;;8.40;99.90;;;;;;6121916;23;20944;-79
2023/01/01 19:01:23;;;;;;;4.45;4.20;;;8.40;99.90;;;;;;6096226;23;20464;-78